Time;durP1;ratioP1;P1;durP2;ratioP2;P2;SDS_P1;SDS_P2;PMS_P1;PMS_P2;Temp;Humidity;BMP_temperature;BMP_pressure;BME280_temperature;BME280_humidity;BME280_pressure;Samples;Min_cycle;Max_cycle;Signal;HPM_P1;HPM_P2
2023/07/14 00:01:29;;;;;;;9.40;8.27;;;15.20;99.90;;;;;;5045942;28;20718;-72
2023/07/14 00:03:56;;;;;;;13.85;12.48;;;15.20;99.90;;;;;;5046676;28;20925;-71
2023/07/14 00:06:22;;;;;;;13.02;11.52;;;15.20;99.90;;;;;;5045376;28;20051;-72
2023/07/14 00:08:48;;;;;;;14.52;13.13;;;15.10;99.90;;;;;;5031262;28;20055;-71
2023/07/14 00:11:21;;;;;;;14.07;12.55;;;15.20;99.90;;;;;;5044950;28;20189;-72
2023/07/14 00:13:51;;;;;;;15.48;13.98;;;15.10;99.90;;;;;;5046838;28;20047;-73
2023/07/14 00:16:19;;;;;;;16.08;14.02;;;15.20;99.90;;;;;;5031336;28;20048;-73
2023/07/14 00:18:46;;;;;;;15.30;13.70;;;15.20;99.90;;;;;;5045857;28;20055;-72
2023/07/14 00:21:22;;;;;;;14.23;13.02;;;15.10;99.90;;;;;;5045831;28;20059;-73
2023/07/14 00:23:49;;;;;;;15.65;14.10;;;15.10;99.90;;;;;;5044703;28;20116;-74
2023/07/14 00:26:19;;;;;;;14.70;13.40;;;15.10;99.90;;;;;;5045249;28;20093;-72
2023/07/14 00:28:49;;;;;;;16.33;14.82;;;15.10;99.90;;;;;;5044294;28;20101;-72
2023/07/14 00:31:19;;;;;;;17.95;16.20;;;15.10;99.90;;;;;;5027309;28;20259;-72
2023/07/14 00:33:51;;;;;;;16.27;14.77;;;15.10;99.90;;;;;;5024377;28;20149;-73
2023/07/14 00:36:18;;;;;;;18.13;16.55;;;15.10;99.90;;;;;;5014054;28;20444;-74
2023/07/14 00:38:44;;;;;;;18.08;16.42;;;15.10;99.90;;;;;;5055950;28;20036;-73
2023/07/14 00:41:22;;;;;;;18.33;16.50;;;15.10;99.90;;;;;;5060037;28;20509;-73
2023/07/14 00:43:49;;;;;;;18.13;16.27;;;15.10;99.90;;;;;;5039907;28;20076;-73
2023/07/14 00:46:30;;;;;;;18.38;16.77;;;15.10;99.90;;;;;;5058416;28;20052;-73
2023/07/14 00:49:04;;;;;;;18.90;17.20;;;15.10;99.90;;;;;;5056209;28;20046;-74
2023/07/14 00:51:34;;;;;;;21.05;19.05;;;15.10;99.90;;;;;;5043130;28;20040;-74
2023/07/14 00:53:59;;;;;;;20.13;18.23;;;15.10;99.90;;;;;;5048356;28;20572;-73
2023/07/14 00:56:43;;;;;;;20.73;18.83;;;15.10;99.90;;;;;;5044669;28;20036;-74
2023/07/14 00:59:15;;;;;;;20.90;18.98;;;15.10;99.90;;;;;;5058064;28;20029;-73
2023/07/14 01:02:11;;;;;;;18.92;17.02;;;15.10;99.90;;;;;;5057418;28;20041;-73
2023/07/14 01:04:41;;;;;;;18.65;16.92;;;15.00;99.90;;;;;;5057563;28;20842;-73
2023/07/14 01:07:07;;;;;;;19.92;18.02;;;15.00;99.90;;;;;;5043895;28;20131;-73
2023/07/14 01:09:34;;;;;;;20.05;18.08;;;15.00;99.90;;;;;;5057535;28;20583;-73
2023/07/14 01:12:03;;;;;;;20.75;18.80;;;14.90;99.90;;;;;;5057076;28;20695;-73
2023/07/14 01:14:39;;;;;;;21.40;19.23;;;14.90;99.90;;;;;;5043210;28;20566;-73
2023/07/14 01:17:05;;;;;;;20.20;17.83;;;15.00;99.90;;;;;;5058305;28;20048;-73
2023/07/14 01:19:53;;;;;;;19.15;17.35;;;14.90;99.90;;;;;;5037008;28;20033;-73
2023/07/14 01:22:19;;;;;;;18.92;17.23;;;14.90;99.90;;;;;;5054594;28;20850;-73
2023/07/14 01:24:55;;;;;;;18.77;16.98;;;14.90;99.90;;;;;;5041381;28;20079;-73
2023/07/14 01:27:24;;;;;;;17.63;15.82;;;14.90;99.90;;;;;;5052513;28;20053;-73
2023/07/14 01:29:51;;;;;;;17.50;15.80;;;14.90;99.90;;;;;;5046334;28;20497;-75
2023/07/14 01:32:19;;;;;;;20.73;18.63;;;14.90;99.90;;;;;;5041393;28;20051;-73
2023/07/14 01:34:45;;;;;;;20.05;18.08;;;14.80;99.90;;;;;;5045088;28;20084;-73
2023/07/14 01:37:17;;;;;;;19.48;17.67;;;14.80;99.90;;;;;;5051982;28;20369;-73
2023/07/14 01:39:43;;;;;;;19.00;17.15;;;14.80;99.90;;;;;;5036260;28;20109;-73
2023/07/14 01:42:09;;;;;;;18.40;16.70;;;14.80;99.90;;;;;;5054665;28;20084;-73
2023/07/14 01:44:36;;;;;;;20.55;17.58;;;14.80;99.90;;;;;;5054998;28;20067;-73
2023/07/14 01:47:02;;;;;;;19.63;17.83;;;14.80;99.90;;;;;;5035610;28;20048;-74
2023/07/14 01:49:36;;;;;;;21.70;19.52;;;14.70;99.90;;;;;;5038420;28;20044;-74
2023/07/14 01:52:05;;;;;;;18.77;17.05;;;14.70;99.90;;;;;;5039210;28;20044;-74
2023/07/14 01:54:41;;;;;;;19.48;17.75;;;14.70;99.90;;;;;;5037553;28;20411;-74
2023/07/14 01:57:12;;;;;;;18.08;16.38;;;14.80;99.90;;;;;;5039742;28;20142;-74
2023/07/14 01:59:41;;;;;;;17.08;15.43;;;14.70;99.90;;;;;;5039135;28;20044;-74
2023/07/14 02:02:16;;;;;;;18.33;16.60;;;14.70;99.90;;;;;;5055191;28;20060;-74
2023/07/14 02:04:45;;;;;;;20.90;18.88;;;14.70;99.90;;;;;;5052672;28;20053;-74
2023/07/14 02:07:13;;;;;;;19.05;17.27;;;14.70;99.90;;;;;;5051137;28;20087;-73
2023/07/14 02:09:40;;;;;;;17.27;15.68;;;14.60;99.90;;;;;;5034118;28;20064;-74
2023/07/14 02:12:12;;;;;;;18.55;16.75;;;14.60;99.90;;;;;;5053272;28;20044;-73
2023/07/14 02:14:50;;;;;;;18.45;16.63;;;14.60;99.90;;;;;;5056373;28;21041;-73
2023/07/14 02:17:30;;;;;;;17.23;15.52;;;14.70;99.90;;;;;;5042037;28;20044;-75
2023/07/14 02:19:58;;;;;;;18.25;16.40;;;14.60;99.90;;;;;;5038361;28;20504;-75
2023/07/14 02:22:25;;;;;;;17.13;15.52;;;14.60;99.90;;;;;;5037561;28;20040;-73
2023/07/14 02:24:55;;;;;;;18.02;16.42;;;14.60;99.90;;;;;;5059462;28;20090;-73
2023/07/14 02:27:21;;;;;;;15.52;14.02;;;14.60;99.90;;;;;;5044672;28;20483;-73
2023/07/14 02:29:46;;;;;;;16.52;14.93;;;14.60;99.90;;;;;;5059391;28;20054;-73
2023/07/14 02:32:15;;;;;;;17.33;15.27;;;14.60;99.90;;;;;;5043157;28;20037;-73
2023/07/14 02:34:48;;;;;;;17.23;15.50;;;14.60;99.90;;;;;;5044162;28;20049;-74
2023/07/14 02:37:53;;;;;;;16.02;14.45;;;14.60;99.90;;;;;;5056574;28;20033;-73
2023/07/14 02:40:19;;;;;;;15.75;13.85;;;14.50;99.90;;;;;;5053521;28;20055;-74
2023/07/14 02:42:45;;;;;;;17.27;13.82;;;14.50;99.90;;;;;;5043565;28;20048;-73
2023/07/14 02:45:14;;;;;;;15.63;14.18;;;14.50;99.90;;;;;;5056355;28;20518;-74
2023/07/14 02:47:42;;;;;;;15.57;13.68;;;14.50;99.90;;;;;;5055792;28;20519;-73
2023/07/14 02:50:08;;;;;;;14.80;13.30;;;14.50;99.90;;;;;;5044935;28;20114;-73
2023/07/14 02:52:34;;;;;;;14.02;12.55;;;14.40;99.90;;;;;;5038996;28;20049;-73
2023/07/14 02:54:59;;;;;;;15.30;13.80;;;14.40;99.90;;;;;;5057986;28;20710;-73
2023/07/14 02:57:25;;;;;;;13.45;11.95;;;14.40;99.90;;;;;;5039570;28;20082;-73
2023/07/14 02:59:51;;;;;;;14.55;13.13;;;14.40;99.90;;;;;;5041769;28;20048;-73
2023/07/14 03:02:16;;;;;;;14.88;13.43;;;14.40;99.90;;;;;;5057003;28;20036;-73
2023/07/14 03:04:42;;;;;;;13.90;12.55;;;14.40;99.90;;;;;;5058780;28;20452;-73
2023/07/14 03:07:08;;;;;;;14.75;13.23;;;14.40;99.90;;;;;;5045021;28;20537;-73
2023/07/14 03:09:37;;;;;;;14.52;12.88;;;14.40;99.90;;;;;;5012182;28;20044;-73
2023/07/14 03:12:03;;;;;;;14.07;12.73;;;14.40;99.90;;;;;;5059256;28;20135;-73
2023/07/14 03:14:29;;;;;;;13.25;11.82;;;14.40;99.90;;;;;;5062557;28;20044;-73
2023/07/14 03:16:55;;;;;;;14.90;12.93;;;14.40;99.90;;;;;;5062445;28;20059;-73
2023/07/14 03:19:20;;;;;;;15.48;13.25;;;14.30;99.90;;;;;;5057368;28;20099;-72
2023/07/14 03:21:46;;;;;;;14.68;13.02;;;14.30;99.90;;;;;;5044455;28;20045;-72
2023/07/14 03:24:12;;;;;;;14.43;12.93;;;14.30;99.90;;;;;;5072674;28;20078;-73
2023/07/14 03:26:38;;;;;;;13.60;12.40;;;14.20;99.90;;;;;;5038425;28;20047;-73
2023/07/14 03:29:04;;;;;;;13.90;12.43;;;14.20;99.90;;;;;;5042518;28;20105;-73
2023/07/14 03:31:29;;;;;;;13.60;12.23;;;14.20;99.90;;;;;;5044425;28;20455;-74
2023/07/14 03:33:55;;;;;;;13.93;12.52;;;14.10;99.90;;;;;;5042692;28;20052;-74
2023/07/14 03:36:23;;;;;;;14.02;12.38;;;14.10;99.90;;;;;;5041263;28;20154;-73
2023/07/14 03:39:22;;;;;;;14.23;12.82;;;14.10;99.90;;;;;;5042464;28;20048;-73
2023/07/14 03:41:48;;;;;;;13.20;11.77;;;14.10;99.90;;;;;;5026619;28;21323;-73
2023/07/14 03:44:14;;;;;;;13.25;11.95;;;14.10;99.90;;;;;;5060943;28;20055;-73
2023/07/14 03:46:40;;;;;;;12.50;11.27;;;14.00;99.90;;;;;;5042959;28;20129;-73
2023/07/14 03:49:05;;;;;;;13.23;11.88;;;14.00;99.90;;;;;;5043412;28;20076;-73
2023/07/14 03:51:32;;;;;;;13.45;11.55;;;14.00;99.90;;;;;;5042797;28;20139;-73
2023/07/14 03:53:57;;;;;;;14.20;12.10;;;14.00;99.90;;;;;;5040817;28;20078;-75
2023/07/14 03:56:25;;;;;;;13.23;11.82;;;13.90;99.90;;;;;;5045016;28;20044;-73
2023/07/14 03:58:51;;;;;;;19.83;12.15;;;13.90;99.90;;;;;;5024268;28;20040;-74
2023/07/14 04:01:17;;;;;;;13.82;12.43;;;13.90;99.90;;;;;;5042237;28;20054;-73
2023/07/14 04:03:44;;;;;;;12.15;10.95;;;13.90;99.90;;;;;;5021662;28;20044;-73
2023/07/14 04:06:11;;;;;;;15.20;12.10;;;13.90;99.90;;;;;;5028015;28;20124;-73
2023/07/14 04:08:42;;;;;;;14.82;11.77;;;13.90;99.90;;;;;;5043706;28;20075;-73
2023/07/14 04:11:08;;;;;;;13.00;11.63;;;13.90;99.90;;;;;;5028846;28;20053;-73
2023/07/14 04:13:34;;;;;;;13.40;12.00;;;13.90;99.90;;;;;;5043652;28;21404;-73
2023/07/14 04:16:00;;;;;;;13.07;11.77;;;13.90;99.90;;;;;;5030000;28;20056;-74
2023/07/14 04:18:26;;;;;;;12.57;11.32;;;13.90;99.90;;;;;;5041883;28;20132;-73
2023/07/14 04:20:52;;;;;;;13.98;11.27;;;14.00;99.90;;;;;;5030119;28;20048;-74
2023/07/14 04:23:18;;;;;;;14.48;11.07;;;14.00;99.90;;;;;;5045613;28;20056;-73
2023/07/14 04:25:44;;;;;;;14.20;12.70;;;14.00;99.90;;;;;;5043934;28;20076;-73
2023/07/14 04:28:11;;;;;;;15.85;12.20;;;14.00;99.90;;;;;;5029438;28;20083;-73
2023/07/14 04:30:36;;;;;;;14.50;11.38;;;14.10;99.90;;;;;;5030123;28;20051;-73
2023/07/14 04:33:04;;;;;;;13.63;11.85;;;14.10;99.90;;;;;;5028967;28;20052;-73
2023/07/14 04:35:29;;;;;;;14.20;12.20;;;14.10;99.90;;;;;;5044723;28;20513;-73
2023/07/14 04:37:55;;;;;;;13.35;12.05;;;14.10;99.90;;;;;;5028898;28;20059;-73
2023/07/14 04:40:21;;;;;;;13.55;12.25;;;14.20;99.90;;;;;;5031483;28;20063;-73
2023/07/14 04:42:48;;;;;;;15.10;13.52;;;14.20;99.90;;;;;;5042746;28;20050;-72
2023/07/14 04:45:16;;;;;;;14.80;13.25;;;14.20;99.90;;;;;;5044325;28;21098;-73
2023/07/14 04:47:43;;;;;;;14.25;12.65;;;14.20;99.90;;;;;;5046088;28;20044;-73
2023/07/14 04:50:09;;;;;;;16.60;12.75;;;14.30;99.90;;;;;;5045787;28;20056;-73
2023/07/14 04:52:35;;;;;;;15.23;13.05;;;14.30;99.90;;;;;;5043749;28;20055;-74
2023/07/14 04:55:00;;;;;;;14.60;13.13;;;14.30;99.90;;;;;;5041143;28;20085;-74
2023/07/14 04:57:26;;;;;;;14.68;13.23;;;14.30;99.90;;;;;;5029657;28;20045;-73
2023/07/14 04:59:52;;;;;;;14.90;13.30;;;14.40;99.90;;;;;;5027491;28;20490;-73
2023/07/14 05:02:18;;;;;;;14.57;12.93;;;14.40;99.90;;;;;;5031654;28;20134;-74
2023/07/14 05:04:43;;;;;;;13.63;11.70;;;14.50;99.90;;;;;;5034704;28;22010;-74
2023/07/14 05:07:10;;;;;;;14.35;12.85;;;14.60;99.90;;;;;;5018373;28;20170;-74
2023/07/14 05:09:38;;;;;;;15.07;12.18;;;14.70;99.90;;;;;;5036399;28;20045;-74
2023/07/14 05:12:06;;;;;;;15.23;12.40;;;14.70;99.90;;;;;;5034713;28;20044;-73
2023/07/14 05:14:32;;;;;;;16.00;14.40;;;14.70;99.90;;;;;;5017491;28;20060;-73
2023/07/14 05:16:58;;;;;;;13.05;11.75;;;14.70;99.90;;;;;;5016997;28;20041;-74
2023/07/14 05:19:24;;;;;;;14.50;13.05;;;14.80;99.90;;;;;;5031956;28;20040;-73
2023/07/14 05:21:52;;;;;;;17.08;12.45;;;14.80;99.90;;;;;;5033099;28;20667;-73
2023/07/14 05:24:18;;;;;;;14.23;12.85;;;14.90;99.90;;;;;;5017656;28;21067;-73
2023/07/14 05:26:44;;;;;;;13.73;12.43;;;14.90;99.90;;;;;;5034335;28;20079;-73
2023/07/14 05:29:13;;;;;;;14.57;13.23;;;14.90;99.90;;;;;;5016700;28;20865;-74
2023/07/14 05:31:39;;;;;;;13.13;11.73;;;14.90;99.90;;;;;;5030164;28;20052;-73
2023/07/14 05:34:05;;;;;;;14.93;12.45;;;14.90;99.90;;;;;;5030809;28;20150;-73
2023/07/14 05:36:30;;;;;;;16.15;12.98;;;15.00;99.90;;;;;;5029504;28;20054;-73
2023/07/14 05:38:56;;;;;;;14.98;13.00;;;15.00;99.90;;;;;;5032849;28;20048;-73
2023/07/14 05:41:22;;;;;;;15.30;13.70;;;15.00;99.90;;;;;;5018443;28;20601;-74
2023/07/14 05:43:47;;;;;;;13.95;12.55;;;15.10;99.90;;;;;;5045532;28;20048;-73
2023/07/14 05:46:13;;;;;;;14.65;13.07;;;15.10;99.90;;;;;;5061828;28;20517;-74
2023/07/14 05:48:39;;;;;;;13.52;12.15;;;15.20;99.90;;;;;;5046604;28;20048;-73
2023/07/14 05:51:05;;;;;;;14.85;13.40;;;15.30;99.90;;;;;;5050045;28;20075;-73
2023/07/14 05:53:31;;;;;;;13.55;12.15;;;15.30;99.90;;;;;;5069663;28;20048;-73
2023/07/14 05:55:56;;;;;;;15.65;13.43;;;15.40;99.90;;;;;;5055290;28;20048;-73
2023/07/14 05:58:22;;;;;;;14.93;13.32;;;15.50;99.90;;;;;;5066783;28;20040;-74
2023/07/14 06:00:48;;;;;;;14.38;12.95;;;15.50;99.90;;;;;;5068185;28;20048;-73
2023/07/14 06:03:18;;;;;;;15.23;13.60;;;15.60;99.90;;;;;;5060791;28;20398;-74
2023/07/14 06:05:46;;;;;;;14.52;13.13;;;15.70;99.90;;;;;;5066503;28;20057;-73
2023/07/14 06:08:11;;;;;;;15.15;13.52;;;15.70;99.90;;;;;;5046016;28;20182;-74
2023/07/14 06:10:37;;;;;;;14.40;12.52;;;15.80;99.90;;;;;;5057815;28;20119;-74
2023/07/14 06:13:04;;;;;;;14.25;12.85;;;15.80;99.90;;;;;;5067945;28;20090;-74
2023/07/14 06:15:30;;;;;;;15.13;13.45;;;15.90;99.90;;;;;;5050711;28;20044;-73
2023/07/14 06:17:56;;;;;;;15.00;12.65;;;16.00;99.90;;;;;;5050697;28;20063;-74
2023/07/14 06:20:22;;;;;;;14.32;12.80;;;16.10;99.90;;;;;;5044356;28;20558;-75
2023/07/14 06:22:48;;;;;;;14.35;12.85;;;16.20;99.90;;;;;;5064108;28;20460;-75
2023/07/14 06:25:15;;;;;;;14.38;12.88;;;16.20;99.90;;;;;;5060779;28;20060;-75
2023/07/14 06:27:40;;;;;;;15.85;13.10;;;16.30;99.90;;;;;;5061169;28;20040;-75
2023/07/14 06:30:08;;;;;;;13.55;12.20;;;16.40;99.90;;;;;;5061533;28;20051;-76
2023/07/14 06:32:34;;;;;;;14.60;11.73;;;16.50;99.90;;;;;;5049232;28;20745;-75
2023/07/14 06:35:00;;;;;;;12.45;11.13;;;16.50;99.90;;;;;;5065350;28;20051;-74
2023/07/14 06:37:26;;;;;;;12.52;11.23;;;16.60;99.90;;;;;;5071306;28;20036;-74
2023/07/14 06:39:53;;;;;;;14.25;12.70;;;16.70;99.90;;;;;;5053623;28;20051;-74
2023/07/14 06:42:18;;;;;;;15.07;12.77;;;16.80;99.90;;;;;;5045896;28;20498;-74
2023/07/14 06:44:44;;;;;;;13.80;12.23;;;16.80;99.90;;;;;;5065697;28;20047;-74
2023/07/14 06:47:11;;;;;;;15.05;12.40;;;16.90;99.90;;;;;;5059206;28;20056;-74
2023/07/14 06:49:38;;;;;;;13.25;11.85;;;17.00;99.90;;;;;;5042612;28;20055;-75
2023/07/14 06:52:04;;;;;;;15.25;12.73;;;17.10;99.90;;;;;;5061895;28;20049;-74
2023/07/14 06:54:29;;;;;;;14.23;11.70;;;17.20;99.90;;;;;;5064862;28;20521;-74
2023/07/14 06:56:57;;;;;;;13.18;11.38;;;17.30;99.90;;;;;;5066177;28;20345;-75
2023/07/14 06:59:22;;;;;;;12.48;11.27;;;17.40;99.90;;;;;;5061578;28;20040;-74
2023/07/14 07:01:48;;;;;;;13.55;12.20;;;17.50;99.90;;;;;;5059204;28;20140;-74
2023/07/14 07:04:15;;;;;;;15.40;11.50;;;17.70;99.90;;;;;;5071892;28;20044;-74
2023/07/14 07:06:41;;;;;;;15.38;11.85;;;17.80;99.90;;;;;;5044921;28;20045;-75
2023/07/14 07:09:07;;;;;;;13.23;11.82;;;17.90;99.90;;;;;;5068158;28;20040;-75
2023/07/14 07:11:33;;;;;;;12.98;11.57;;;18.00;99.90;;;;;;5061447;28;20433;-75
2023/07/14 07:13:59;;;;;;;13.82;11.23;;;18.10;99.90;;;;;;5072162;28;20131;-75
2023/07/14 07:16:25;;;;;;;12.82;10.68;;;18.20;99.90;;;;;;5068804;28;20059;-75
2023/07/14 07:18:51;;;;;;;12.18;10.82;;;18.30;99.90;;;;;;5057430;28;20414;-75
2023/07/14 07:21:17;;;;;;;12.43;10.13;;;18.40;99.90;;;;;;5060388;28;20051;-75
2023/07/14 07:23:43;;;;;;;11.90;10.60;;;18.50;99.90;;;;;;5055333;28;20040;-75
2023/07/14 07:26:09;;;;;;;13.25;10.07;;;18.60;99.90;;;;;;5064607;28;20499;-75
2023/07/14 07:28:35;;;;;;;11.77;8.93;;;18.70;99.90;;;;;;5046299;28;20495;-75
2023/07/14 07:31:09;;;;;;;9.80;8.25;;;18.80;99.90;;;;;;5061913;28;20047;-75
2023/07/14 07:33:36;;;;;;;9.13;7.30;;;18.90;99.90;;;;;;5042570;28;20036;-74
2023/07/14 07:36:14;;;;;;;11.05;7.47;;;19.00;99.90;;;;;;5060625;28;20433;-74
2023/07/14 07:38:42;;;;;;;9.10;7.63;;;19.10;99.90;;;;;;5043953;28;20033;-75
2023/07/14 07:41:08;;;;;;;11.05;7.63;;;19.20;99.90;;;;;;5066695;28;20498;-75
2023/07/14 07:43:33;;;;;;;9.63;6.75;;;19.20;99.90;;;;;;5055459;28;20110;-76
2023/07/14 07:45:59;;;;;;;11.43;7.85;;;19.30;99.90;;;;;;5052441;28;20043;-75
2023/07/14 07:48:25;;;;;;;8.57;7.45;;;19.40;99.90;;;;;;5051290;28;20152;-75
2023/07/14 07:50:51;;;;;;;10.25;6.78;;;19.40;99.90;;;;;;5057072;28;20667;-75
2023/07/14 07:53:17;;;;;;;8.60;5.88;;;19.60;99.90;;;;;;5052989;28;20044;-75
2023/07/14 07:55:54;;;;;;;10.52;6.80;;;19.70;99.90;;;;;;5046494;28;20044;-76
2023/07/14 07:58:24;;;;;;;12.13;7.07;;;19.80;99.90;;;;;;5056409;28;20051;-75
2023/07/14 08:00:52;;;;;;;11.15;6.97;;;19.90;99.90;;;;;;5062519;28;20051;-75
2023/07/14 08:03:18;;;;;;;8.60;4.93;;;20.00;99.90;;;;;;5053991;28;20398;-76
2023/07/14 08:05:44;;;;;;;6.45;4.43;;;20.10;99.90;;;;;;5044459;28;20110;-75
2023/07/14 08:08:10;;;;;;;5.15;3.75;;;20.20;99.90;;;;;;5050004;28;20131;-75
2023/07/14 08:10:42;;;;;;;6.45;3.90;;;20.20;99.90;;;;;;5061134;28;20418;-76
2023/07/14 08:13:09;;;;;;;8.13;4.15;;;20.20;99.90;;;;;;5046151;28;20127;-74
2023/07/14 08:15:37;;;;;;;6.00;3.40;;;20.20;99.90;;;;;;5046446;28;20373;-75
2023/07/14 08:18:04;;;;;;;7.00;4.28;;;20.20;99.90;;;;;;5056772;28;20044;-75
2023/07/14 08:20:30;;;;;;;6.85;4.28;;;20.20;99.90;;;;;;5059548;28;20059;-75
2023/07/14 08:22:56;;;;;;;5.78;4.03;;;20.30;99.90;;;;;;5056808;28;20648;-75
2023/07/14 08:25:23;;;;;;;7.43;4.30;;;20.40;99.90;;;;;;5051649;28;20044;-75
2023/07/14 08:27:49;;;;;;;6.85;3.90;;;20.50;99.90;;;;;;5056970;28;20114;-75
2023/07/14 08:30:15;;;;;;;5.85;3.90;;;20.50;99.90;;;;;;5056906;28;20056;-76
2023/07/14 08:32:41;;;;;;;8.68;3.45;;;20.50;99.90;;;;;;5062036;28;20055;-76
2023/07/14 08:35:10;;;;;;;5.68;2.97;;;20.50;99.90;;;;;;5059739;28;20052;-76
2023/07/14 08:37:35;;;;;;;7.82;3.45;;;20.40;99.90;;;;;;5062500;28;20052;-81
2023/07/14 08:40:02;;;;;;;6.32;3.65;;;20.40;99.90;;;;;;5058108;28;20473;-80
2023/07/14 08:42:41;;;;;;;5.82;3.40;;;20.50;99.90;;;;;;5059697;28;20048;-82
2023/07/14 08:45:30;;;;;;;5.00;3.40;;;20.60;99.90;;;;;;5063563;28;20083;-80
2023/07/14 08:48:24;;;;;;;5.87;3.17;;;20.80;99.90;;;;;;5035176;28;20072;-81
2023/07/14 08:50:54;;;;;;;6.20;2.95;;;20.90;99.90;;;;;;5057031;28;20098;-81
2023/07/14 08:53:23;;;;;;;;;;;21.10;99.90;;;;;;5048171;28;20106;-80
2023/07/14 08:55:50;;;;;;;5.90;3.03;;;21.20;99.90;;;;;;5055824;28;20453;-81
2023/07/14 08:58:24;;;;;;;6.13;3.05;;;21.30;99.90;;;;;;5066602;28;20568;-81
2023/07/14 09:00:59;;;;;;;4.70;2.75;;;21.50;99.90;;;;;;5042227;28;20062;-80
2023/07/14 09:03:40;;;;;;;5.65;3.28;;;21.60;99.90;;;;;;5051020;28;20053;-81
2023/07/14 09:06:28;;;;;;;6.65;2.92;;;21.80;99.90;;;;;;5062440;28;20608;-79
2023/07/14 09:08:54;;;;;;;5.88;3.03;;;21.90;99.90;;;;;;5047390;28;21015;-81
2023/07/14 09:11:32;;;;;;;5.20;3.08;;;21.90;99.90;;;;;;5059409;28;20041;-81
2023/07/14 09:14:43;;;;;;;7.07;3.17;;;21.80;99.90;;;;;;5058376;28;20075;-81
2023/07/14 09:17:19;;;;;;;5.57;2.95;;;21.70;99.90;;;;;;5044756;28;20052;-80
2023/07/14 09:20:13;;;;;;;5.00;2.80;;;21.70;99.90;;;;;;5059195;28;20120;-80
2023/07/14 09:23:23;;;;;;;4.88;2.67;;;21.80;99.90;;;;;;5059075;28;20173;-80
2023/07/14 09:26:03;;;;;;;5.82;2.80;;;21.60;99.90;;;;;;5005689;28;20500;-80
2023/07/14 09:28:42;;;;;;;4.55;2.80;;;21.70;99.90;;;;;;4991392;28;20440;-81
2023/07/14 09:31:37;;;;;;;4.97;2.70;;;21.80;99.90;;;;;;5043985;28;20578;-81
2023/07/14 09:34:17;;;;;;;3.70;2.63;;;21.90;98.00;;;;;;5045662;28;20040;-81
2023/07/14 09:36:43;;;;;;;5.53;3.05;;;21.90;98.00;;;;;;5066400;28;20143;-81
2023/07/14 09:39:20;;;;;;;8.07;3.40;;;22.00;99.30;;;;;;5067696;28;20169;-81
2023/07/14 09:41:48;;;;;;;7.32;3.60;;;22.00;98.50;;;;;;5052732;28;20058;-81
2023/07/14 09:44:14;;;;;;;5.78;3.30;;;21.90;98.00;;;;;;5062538;28;20227;-81
2023/07/14 09:46:49;;;;;;;5.53;3.10;;;21.70;98.50;;;;;;5048778;28;20041;-80
2023/07/14 09:49:38;;;;;;;5.40;3.42;;;21.40;98.70;;;;;;5071033;28;21505;-76
2023/07/14 09:52:20;;;;;;;6.35;3.35;;;21.50;99.20;;;;;;5051191;28;20040;-76
2023/07/14 09:54:52;;;;;;;6.80;3.53;;;21.70;99.40;;;;;;5068628;28;20060;-76
2023/07/14 09:57:46;;;;;;;6.65;3.67;;;21.90;99.30;;;;;;5047188;28;20055;-76
2023/07/14 10:00:24;;;;;;;7.25;4.45;;;22.10;99.60;;;;;;5056484;28;20048;-75
2023/07/14 10:03:07;;;;;;;6.65;3.75;;;22.20;99.20;;;;;;5051254;28;20044;-76
2023/07/14 10:06:13;;;;;;;7.35;4.18;;;22.10;99.90;;;;;;5061470;28;20544;-76
2023/07/14 10:08:54;;;;;;;8.95;3.90;;;22.30;99.00;;;;;;5025500;28;20063;-75
2023/07/14 10:11:26;;;;;;;7.63;3.97;;;22.40;99.40;;;;;;5062650;28;20053;-75
2023/07/14 10:13:55;;;;;;;7.00;3.65;;;22.60;99.40;;;;;;5063745;28;20044;-75
2023/07/14 10:16:21;;;;;;;6.93;3.70;;;22.70;98.70;;;;;;5065435;28;20041;-75
2023/07/14 10:18:53;;;;;;;5.50;4.13;;;22.70;98.40;;;;;;5055759;28;20032;-76
2023/07/14 10:21:25;;;;;;;8.70;4.78;;;22.80;97.70;;;;;;5047442;28;20128;-76
2023/07/14 10:24:02;;;;;;;7.45;4.50;;;22.60;96.60;;;;;;5074474;28;20055;-79
2023/07/14 10:26:30;;;;;;;6.93;4.40;;;22.50;97.60;;;;;;5060745;28;20491;-81
2023/07/14 10:28:57;;;;;;;5.25;3.63;;;22.60;97.80;;;;;;5063815;28;20048;-81
2023/07/14 10:31:22;;;;;;;7.15;4.07;;;22.80;96.80;;;;;;5063038;28;20064;-80
2023/07/14 10:34:14;;;;;;;5.20;3.63;;;22.80;96.20;;;;;;5055396;28;20040;-80
2023/07/14 10:36:41;;;;;;;6.82;4.05;;;22.80;96.20;;;;;;5047884;28;20105;-79
2023/07/14 10:39:38;;;;;;;6.90;4.03;;;22.90;96.70;;;;;;5070984;28;20040;-80
2023/07/14 10:42:11;;;;;;;6.55;3.55;;;22.80;96.10;;;;;;5061755;28;20052;-80
2023/07/14 10:44:41;;;;;;;7.30;3.40;;;22.70;96.60;;;;;;5053492;28;20372;-81
2023/07/14 10:47:19;;;;;;;5.45;3.33;;;22.60;96.70;;;;;;5074885;28;20071;-80
2023/07/14 10:49:57;;;;;;;7.43;3.50;;;22.50;97.50;;;;;;5048437;28;20093;-81
2023/07/14 10:52:45;;;;;;;6.15;3.80;;;22.50;98.30;;;;;;5059218;28;20067;-80
2023/07/14 10:55:21;;;;;;;6.57;3.60;;;22.60;96.90;;;;;;5064635;28;20048;-80
2023/07/14 10:57:56;;;;;;;5.63;3.33;;;22.60;97.60;;;;;;5053853;28;20056;-82
2023/07/14 11:00:31;;;;;;;6.22;3.70;;;22.50;97.10;;;;;;5073554;28;20071;-81
2023/07/14 11:03:08;;;;;;;5.45;3.55;;;22.40;95.70;;;;;;5065306;28;20553;-80
2023/07/14 11:05:35;;;;;;;4.93;3.58;;;22.30;95.70;;;;;;5046270;28;20060;-81
2023/07/14 11:08:01;;;;;;;12.73;8.40;;;22.20;96.00;;;;;;5051705;28;20515;-81
2023/07/14 11:10:50;;;;;;;7.07;4.05;;;22.30;97.50;;;;;;5064819;28;20043;-81
2023/07/14 11:13:28;;;;;;;5.53;3.45;;;22.40;97.20;;;;;;5064640;28;20040;-81
2023/07/14 11:16:09;;;;;;;5.88;3.50;;;22.50;95.20;;;;;;5047957;28;20048;-81
2023/07/14 11:18:35;;;;;;;4.90;3.15;;;22.30;95.20;;;;;;5067462;28;20044;-80
2023/07/14 11:21:36;;;;;;;5.47;3.22;;;22.20;95.80;;;;;;5060473;28;20059;-81
2023/07/14 11:24:12;;;;;;;5.32;3.60;;;22.10;96.10;;;;;;4986589;28;20050;-80
2023/07/14 11:27:04;;;;;;;9.10;6.07;;;22.00;96.80;;;;;;5054501;28;20056;-77
2023/07/14 11:29:45;;;;;;;6.35;3.22;;;22.00;96.90;;;;;;5028839;28;20056;-77
2023/07/14 11:32:20;;;;;;;5.53;3.03;;;22.00;97.50;;;;;;5052731;28;20048;-78
2023/07/14 11:35:05;;;;;;;7.97;3.75;;;22.30;98.80;;;;;;5050352;28;20060;-78
2023/07/14 11:37:55;;;;;;;5.45;3.53;;;22.70;97.90;;;;;;5061777;28;20211;-78
2023/07/14 11:40:24;;;;;;;5.43;3.35;;;23.10;97.10;;;;;;5051337;28;20040;-79
2023/07/14 11:42:59;;;;;;;5.75;2.60;;;23.50;96.70;;;;;;5063632;28;20110;-78
2023/07/14 11:45:31;;;;;;;5.35;3.10;;;23.80;95.50;;;;;;5045878;28;20673;-79
2023/07/14 11:47:59;;;;;;;5.95;3.22;;;23.90;93.70;;;;;;5051656;28;20498;-78
2023/07/14 11:50:34;;;;;;;6.10;3.35;;;23.70;93.90;;;;;;5063408;28;20323;-78
2023/07/14 11:53:20;;;;;;;6.18;3.47;;;23.50;94.00;;;;;;5070057;28;20040;-78
2023/07/14 11:55:50;;;;;;;6.07;3.42;;;23.30;94.10;;;;;;5056507;28;20041;-78
2023/07/14 11:58:18;;;;;;;3.90;2.83;;;23.10;93.90;;;;;;5051205;28;20457;-77
2023/07/14 12:00:47;;;;;;;5.57;3.22;;;22.80;94.20;;;;;;5062347;28;20048;-78
2023/07/14 12:03:25;;;;;;;5.03;3.50;;;22.70;95.10;;;;;;5044942;28;20049;-78
2023/07/14 12:06:14;;;;;;;7.40;4.90;;;22.70;95.70;;;;;;5056261;28;20048;-78
2023/07/14 12:08:42;;;;;;;7.20;3.88;;;22.60;95.70;;;;;;5066542;28;20044;-79
2023/07/14 12:11:27;;;;;;;6.35;4.47;;;22.70;95.90;;;;;;5050763;28;20486;-78
2023/07/14 12:13:53;;;;;;;6.65;3.90;;;22.80;95.50;;;;;;5069601;28;20045;-78
2023/07/14 12:16:24;;;;;;;5.15;3.92;;;22.70;95.80;;;;;;5047218;28;20041;-79
2023/07/14 12:19:02;;;;;;;5.70;3.72;;;22.60;96.40;;;;;;5053358;28;20036;-78
2023/07/14 12:21:27;;;;;;;5.90;3.97;;;22.60;97.00;;;;;;5063781;28;20064;-78
2023/07/14 12:23:58;;;;;;;5.90;3.67;;;22.60;96.60;;;;;;5051085;28;20071;-78
2023/07/14 12:26:24;;;;;;;8.70;4.85;;;22.60;96.40;;;;;;5056816;28;20083;-77
2023/07/14 12:28:50;;;;;;;7.68;4.68;;;22.60;97.10;;;;;;5064743;28;20045;-78
2023/07/14 12:31:18;;;;;;;6.93;4.20;;;22.70;96.90;;;;;;5050637;28;20044;-78
2023/07/14 12:33:45;;;;;;;6.80;3.63;;;22.70;96.80;;;;;;5062921;28;20040;-79
2023/07/14 12:36:20;;;;;;;5.65;3.70;;;22.80;98.00;;;;;;5055813;28;20087;-77
2023/07/14 12:38:48;;;;;;;5.53;3.90;;;23.00;98.70;;;;;;5070293;28;20075;-78
2023/07/14 12:41:16;;;;;;;7.97;5.63;;;23.20;97.70;;;;;;5046332;28;20044;-77
2023/07/14 12:43:45;;;;;;;7.60;5.25;;;23.20;97.10;;;;;;5050472;28;20518;-78
2023/07/14 12:46:36;;;;;;;7.13;4.07;;;23.30;95.80;;;;;;5050205;28;20044;-78
2023/07/14 12:49:18;;;;;;;6.93;4.22;;;23.40;95.00;;;;;;5071706;28;20158;-79
2023/07/14 12:51:44;;;;;;;7.13;4.53;;;23.40;95.00;;;;;;5049861;28;20040;-78
2023/07/14 12:54:24;;;;;;;6.25;3.88;;;23.50;95.60;;;;;;5061937;28;20048;-78